Time;durP1;ratioP1;P1;durP2;ratioP2;P2;SDS_P1;SDS_P2;PMS_P1;PMS_P2;Temp;Humidity;BMP_temperature;BMP_pressure;BME280_temperature;BME280_humidity;BME280_pressure;Samples;Min_cycle;Max_cycle;Signal;HPM_P1;HPM_P2
2023/01/16 00:02:40;;;;;;;6.97;0.73;;;5.80;99.90;;;;;;7300005;32;20170;-59
2023/01/16 00:06:42;;;;;;;3.78;0.80;;;5.80;99.90;;;;;;7300793;32;20108;-60
2023/01/16 00:10:45;;;;;;;2.78;0.60;;;5.80;99.90;;;;;;7298637;32;20237;-61
2023/01/16 00:14:46;;;;;;;3.45;0.60;;;5.80;99.90;;;;;;7298144;32;20730;-60
2023/01/16 00:18:48;;;;;;;3.25;0.70;;;5.70;99.90;;;;;;7297742;32;20115;-60
2023/01/16 00:22:51;;;;;;;3.45;0.70;;;5.70;99.90;;;;;;7295366;32;20258;-60
2023/01/16 00:26:53;;;;;;;3.00;0.73;;;5.70;99.90;;;;;;7299071;32;20122;-60
2023/01/16 00:30:54;;;;;;;2.03;0.55;;;5.70;99.90;;;;;;7299461;32;20105;-61
2023/01/16 00:34:56;;;;;;;1.87;0.40;;;5.70;99.90;;;;;;7293015;32;20450;-60
2023/01/16 00:38:58;;;;;;;1.70;0.30;;;5.60;99.90;;;;;;7296752;32;20112;-61
2023/01/16 00:43:00;;;;;;;2.08;0.45;;;5.50;99.90;;;;;;7282558;32;20506;-60
2023/01/16 00:47:02;;;;;;;3.62;0.65;;;5.50;99.90;;;;;;7298478;32;20104;-61
2023/01/16 00:51:04;;;;;;;4.65;0.88;;;5.30;99.90;;;;;;7296460;32;20210;-60
2023/01/16 00:55:06;;;;;;;2.60;0.52;;;5.20;99.90;;;;;;7296819;32;20103;-60
2023/01/16 00:59:09;;;;;;;2.03;0.60;;;5.30;99.90;;;;;;7291696;32;20104;-60
2023/01/16 01:03:10;;;;;;;1.92;0.55;;;5.40;99.90;;;;;;7299165;32;20174;-59
2023/01/16 01:07:12;;;;;;;6.43;0.68;;;5.40;99.90;;;;;;7297166;32;20580;-61
2023/01/16 01:11:14;;;;;;;5.80;1.00;;;5.40;99.90;;;;;;7294897;32;20528;-60
2023/01/16 01:15:16;;;;;;;4.80;0.90;;;5.40;99.90;;;;;;7298891;32;20108;-59
2023/01/16 01:19:18;;;;;;;3.37;0.60;;;5.20;99.90;;;;;;7297778;32;20115;-60
2023/01/16 01:23:20;;;;;;;2.72;0.85;;;5.10;99.90;;;;;;7294368;32;20213;-60
2023/01/16 01:27:22;;;;;;;4.07;0.90;;;5.10;99.90;;;;;;7298387;32;20306;-59
2023/01/16 01:31:23;;;;;;;2.75;0.60;;;5.00;99.90;;;;;;7297181;32;20630;-60
2023/01/16 01:35:25;;;;;;;5.70;0.75;;;5.00;99.90;;;;;;7301149;32;20284;-61
2023/01/16 01:39:27;;;;;;;3.17;0.73;;;4.90;99.90;;;;;;7299434;32;20284;-61
2023/01/16 01:44:01;;;;;;;3.40;0.60;;;4.90;99.90;;;;;;7292840;32;20138;-59
2023/01/16 01:48:11;;;;;;;4.35;0.75;;;4.90;99.90;;;;;;7290776;32;20132;-60
2023/01/16 01:52:13;;;;;;;4.07;0.80;;;4.90;99.90;;;;;;7289145;32;20207;-60
2023/01/16 01:56:43;;;;;;;6.95;0.88;;;5.00;99.90;;;;;;7284115;32;20236;-60
2023/01/16 02:00:44;;;;;;;6.00;0.80;;;5.10;99.90;;;;;;7268628;32;20225;-60
2023/01/16 02:04:51;;;;;;;2.83;0.60;;;5.10;99.90;;;;;;7296605;32;20597;-60
2023/01/16 02:08:54;;;;;;;3.15;0.60;;;5.20;99.90;;;;;;7289534;32;20285;-61
2023/01/16 02:12:57;;;;;;;4.80;0.85;;;5.30;99.90;;;;;;7297813;32;20132;-60
2023/01/16 02:21:58;;;;;;;3.35;0.68;;;5.30;99.90;;;;;;7295088;32;20136;-60
2023/01/16 02:26:03;;;;;;;2.33;0.50;;;5.40;99.90;;;;;;7291694;32;20109;-60
2023/01/16 02:30:50;;;;;;;6.12;0.82;;;5.40;99.90;;;;;;7296672;32;20189;-59
2023/01/16 02:35:06;;;;;;;2.12;0.73;;;5.50;99.90;;;;;;7269828;32;20199;-62
2023/01/16 02:39:21;;;;;;;2.77;0.50;;;5.50;99.90;;;;;;7294827;32;20222;-60
2023/01/16 02:43:46;;;;;;;3.25;0.88;;;5.50;99.90;;;;;;7297130;32;20364;-60
2023/01/16 02:48:08;;;;;;;1.85;0.50;;;5.60;99.90;;;;;;7290621;32;20115;-59
2023/01/16 02:52:27;;;;;;;3.60;0.70;;;5.50;99.90;;;;;;7290035;32;20104;-62
2023/01/16 02:56:42;;;;;;;2.78;0.60;;;5.40;99.90;;;;;;7292841;32;20108;-63
2023/01/16 03:00:56;;;;;;;2.72;0.62;;;5.40;99.90;;;;;;7287307;32;20132;-60
2023/01/16 03:04:58;;;;;;;4.55;0.65;;;5.40;99.90;;;;;;7289266;32;20507;-61
2023/01/16 03:09:15;;;;;;;1.90;0.43;;;5.40;99.90;;;;;;7291669;32;20183;-61
2023/01/16 03:13:17;;;;;;;;;;;5.40;99.90;;;;;;7291152;32;20274;-60
2023/01/16 03:17:41;;;;;;;2.33;0.62;;;5.30;99.90;;;;;;7291844;32;20319;-59
2023/01/16 03:21:57;;;;;;;3.22;0.40;;;5.20;99.90;;;;;;7291353;32;20113;-59
2023/01/16 03:26:07;;;;;;;1.67;0.47;;;5.10;99.90;;;;;;7294676;32;20127;-58
2023/01/16 03:30:26;;;;;;;1.48;0.30;;;4.90;99.90;;;;;;7292542;32;20395;-61
2023/01/16 03:34:34;;;;;;;1.20;0.43;;;4.90;99.90;;;;;;7285435;32;20155;-61
2023/01/16 03:38:39;;;;;;;3.42;0.50;;;4.90;99.90;;;;;;7292647;32;20112;-58
2023/01/16 03:42:55;;;;;;;1.67;0.32;;;4.80;99.90;;;;;;7292203;32;20157;-58
2023/01/16 03:47:00;;;;;;;1.33;0.22;;;4.80;99.90;;;;;;7288369;32;20187;-59
2023/01/16 03:51:06;;;;;;;2.60;0.25;;;4.70;99.90;;;;;;7286445;32;20111;-58
2023/01/16 03:55:08;;;;;;;1.98;0.40;;;4.60;99.90;;;;;;7293689;32;20144;-59
2023/01/16 03:59:10;;;;;;;1.23;0.30;;;4.70;99.90;;;;;;7289874;32;20199;-58
2023/01/16 04:03:20;;;;;;;0.77;0.20;;;4.70;99.90;;;;;;7283520;32;20127;-59
2023/01/16 04:07:30;;;;;;;1.37;0.20;;;4.80;99.90;;;;;;7294321;32;20206;-59
2023/01/16 04:11:35;;;;;;;0.75;0.30;;;4.80;99.90;;;;;;7295447;32;20142;-58
2023/01/16 04:15:42;;;;;;;1.02;0.20;;;4.70;99.90;;;;;;7286910;32;20252;-58
2023/01/16 04:19:44;;;;;;;3.47;0.30;;;4.60;99.90;;;;;;7289570;32;20142;-59
2023/01/16 04:23:48;;;;;;;1.90;0.55;;;4.70;99.90;;;;;;7291275;32;20191;-58
2023/01/16 04:27:50;;;;;;;1.85;0.30;;;4.60;99.90;;;;;;7296977;32;20261;-59
2023/01/16 04:31:51;;;;;;;1.27;0.35;;;4.60;99.90;;;;;;7295097;32;20169;-62
2023/01/16 04:35:53;;;;;;;1.42;0.30;;;4.60;99.90;;;;;;7294234;32;20143;-59
2023/01/16 04:39:55;;;;;;;2.47;0.45;;;4.40;99.90;;;;;;7294170;32;20120;-59
2023/01/16 04:43:56;;;;;;;1.62;0.40;;;4.50;99.90;;;;;;7294883;32;20601;-59
2023/01/16 04:47:58;;;;;;;2.62;0.50;;;4.50;99.90;;;;;;7299753;32;20128;-58
2023/01/16 04:52:00;;;;;;;2.03;0.55;;;4.60;99.90;;;;;;7295157;32;20139;-58
2023/01/16 04:56:01;;;;;;;2.25;0.55;;;4.50;99.90;;;;;;7294758;32;20218;-60
2023/01/16 05:00:05;;;;;;;1.40;0.47;;;4.50;99.90;;;;;;7294410;32;20767;-61
2023/01/16 05:04:09;;;;;;;4.05;0.47;;;4.50;99.90;;;;;;7297518;32;20171;-61
2023/01/16 05:08:16;;;;;;;4.40;0.40;;;4.50;99.90;;;;;;7289737;32;20234;-58
2023/01/16 05:12:18;;;;;;;5.12;0.75;;;4.60;99.90;;;;;;7291473;32;20522;-58
2023/01/16 05:16:20;;;;;;;3.30;0.77;;;4.60;99.90;;;;;;7292549;32;20221;-58
2023/01/16 05:20:22;;;;;;;3.40;0.50;;;4.70;99.90;;;;;;7298993;32;20179;-59
2023/01/16 05:24:23;;;;;;;4.72;1.45;;;4.80;99.90;;;;;;7295846;32;20249;-58
2023/01/16 05:28:25;;;;;;;2.30;0.43;;;4.80;99.90;;;;;;7295759;32;20198;-58
2023/01/16 05:32:27;;;;;;;2.80;0.50;;;4.80;99.90;;;;;;7280057;32;20118;-58
2023/01/16 05:36:28;;;;;;;3.58;0.40;;;4.80;99.90;;;;;;7298284;32;20130;-58
2023/01/16 05:40:30;;;;;;;2.25;0.52;;;4.80;99.90;;;;;;7297468;32;20349;-58
2023/01/16 05:44:32;;;;;;;2.62;0.60;;;4.90;99.90;;;;;;7300611;32;20120;-58
2023/01/16 05:48:35;;;;;;;2.47;0.40;;;4.90;99.90;;;;;;7292888;32;20215;-58
2023/01/16 05:52:37;;;;;;;1.75;0.40;;;4.90;99.90;;;;;;7297612;32;20173;-58
2023/01/16 05:56:39;;;;;;;2.47;0.52;;;5.00;99.90;;;;;;7299965;32;20116;-57
2023/01/16 06:00:42;;;;;;;1.20;0.30;;;5.10;99.90;;;;;;7297092;32;20287;-58
2023/01/16 06:04:44;;;;;;;6.05;0.47;;;5.00;99.90;;;;;;7300017;32;20175;-58
2023/01/16 06:08:46;;;;;;;3.00;0.50;;;5.00;99.90;;;;;;7299497;32;20493;-58
2023/01/16 06:12:48;;;;;;;1.10;0.32;;;5.30;99.90;;;;;;7298758;32;20100;-59
2023/01/16 06:16:50;;;;;;;2.30;0.25;;;5.20;99.90;;;;;;7280157;32;20217;-59
2023/01/16 06:20:52;;;;;;;0.90;0.28;;;5.10;99.90;;;;;;7295583;32;20733;-60
2023/01/16 06:24:54;;;;;;;1.75;0.30;;;5.10;99.90;;;;;;7297327;32;20145;-59
2023/01/16 06:28:56;;;;;;;1.70;0.40;;;5.10;99.90;;;;;;7297920;32;20270;-59
2023/01/16 06:32:57;;;;;;;1.95;0.40;;;5.20;99.90;;;;;;7290391;32;20238;-59
2023/01/16 06:36:59;;;;;;;2.05;0.30;;;5.20;99.90;;;;;;7294604;32;20116;-59
2023/01/16 06:41:01;;;;;;;1.80;0.40;;;5.20;99.90;;;;;;7299320;32;20267;-59
2023/01/16 06:45:03;;;;;;;2.20;0.40;;;5.30;99.90;;;;;;7295437;32;20128;-58
2023/01/16 06:49:04;;;;;;;1.65;0.37;;;5.20;99.90;;;;;;7295839;32;20511;-58
2023/01/16 06:53:06;;;;;;;5.45;0.52;;;5.40;99.90;;;;;;7293507;32;20170;-60
2023/01/16 06:57:08;;;;;;;2.60;0.60;;;5.30;99.90;;;;;;7289637;32;20597;-59
2023/01/16 07:01:09;;;;;;;2.08;0.30;;;5.40;99.90;;;;;;7299272;32;20132;-59
2023/01/16 07:05:12;;;;;;;3.03;0.30;;;5.40;99.90;;;;;;7288782;32;20480;-59
2023/01/16 07:09:14;;;;;;;4.35;0.50;;;5.40;99.90;;;;;;7277092;32;20595;-58
2023/01/16 07:13:16;;;;;;;0.82;0.30;;;5.40;99.90;;;;;;7293172;32;20130;-59
2023/01/16 07:26:05;;;;;;;3.78;1.00;;;5.30;99.90;;;;;;7293207;32;20529;-60
2023/01/16 07:30:08;;;;;;;3.78;0.50;;;5.40;99.90;;;;;;7290221;32;20134;-59
2023/01/16 07:34:09;;;;;;;3.20;1.60;;;5.40;99.90;;;;;;7297742;32;20092;-60
2023/01/16 07:38:11;;;;;;;2.97;0.55;;;5.40;99.90;;;;;;7292172;32;20254;-60
2023/01/16 07:42:13;;;;;;;1.77;0.60;;;5.40;99.90;;;;;;7293707;32;20168;-60
2023/01/16 07:46:15;;;;;;;2.10;0.68;;;5.30;99.90;;;;;;7292840;32;20511;-60
2023/01/16 07:50:16;;;;;;;2.97;0.68;;;5.30;99.90;;;;;;7289914;32;20213;-60
2023/01/16 07:54:18;;;;;;;4.60;0.60;;;5.20;99.90;;;;;;7286909;32;20111;-60
2023/01/16 07:58:21;;;;;;;2.85;0.68;;;5.30;99.90;;;;;;7292641;32;20138;-60
2023/01/16 08:02:22;;;;;;;3.80;0.80;;;5.30;99.90;;;;;;7284619;32;20120;-60
2023/01/16 08:06:24;;;;;;;3.05;0.57;;;5.30;99.90;;;;;;7286495;32;20725;-61
2023/01/16 08:10:26;;;;;;;2.80;0.60;;;5.30;99.90;;;;;;7288586;32;20108;-60
2023/01/16 08:14:28;;;;;;;4.93;0.80;;;5.30;99.90;;;;;;7292400;32;20229;-60
2023/01/16 08:18:29;;;;;;;4.40;0.80;;;5.30;99.90;;;;;;7300753;32;20469;-60
2023/01/16 08:22:31;;;;;;;4.82;0.65;;;5.20;99.90;;;;;;7302645;32;20786;-59
2023/01/16 08:26:33;;;;;;;4.28;0.60;;;5.10;99.90;;;;;;7296517;32;20163;-60
2023/01/16 08:30:34;;;;;;;5.00;0.60;;;5.20;99.90;;;;;;7300419;32;20146;-62
2023/01/16 08:34:36;;;;;;;4.03;0.60;;;5.20;99.90;;;;;;7303751;32;20108;-61
2023/01/16 08:38:38;;;;;;;3.45;0.70;;;5.20;99.90;;;;;;7297760;32;20143;-60
2023/01/16 08:51:24;;;;;;;2.47;0.60;;;5.20;99.90;;;;;;7295100;32;20308;-60
2023/01/16 08:55:26;;;;;;;2.22;0.60;;;5.30;99.90;;;;;;7296514;32;20132;-60
2023/01/16 08:59:33;;;;;;;4.35;0.70;;;5.30;99.90;;;;;;7297975;32;20137;-59
2023/01/16 09:03:35;;;;;;;4.28;0.60;;;5.30;99.90;;;;;;7298358;32;20107;-60
2023/01/16 09:07:36;;;;;;;3.20;0.50;;;5.30;99.90;;;;;;7299017;32;20560;-59
2023/01/16 09:16:02;;;;;;;3.58;0.75;;;5.10;99.90;;;;;;7295372;32;20574;-60
2023/01/16 09:20:04;;;;;;;3.15;0.50;;;5.00;99.90;;;;;;7299411;32;20108;-60
2023/01/16 09:24:08;;;;;;;2.42;0.70;;;4.90;99.90;;;;;;7301615;32;20179;-62
2023/01/16 09:28:10;;;;;;;2.15;0.68;;;4.90;99.90;;;;;;7300439;32;20262;-61
2023/01/16 09:32:12;;;;;;;2.78;0.30;;;5.00;99.90;;;;;;7300317;32;20159;-61
2023/01/16 09:36:14;;;;;;;1.95;0.22;;;5.00;99.90;;;;;;7295431;32;20130;-61
2023/01/16 09:40:20;;;;;;;2.72;0.62;;;5.00;99.90;;;;;;7291275;32;20107;-60
2023/01/16 09:44:22;;;;;;;2.40;0.50;;;4.90;99.90;;;;;;7301285;32;20136;-61
2023/01/16 09:48:28;;;;;;;1.40;0.32;;;5.00;99.90;;;;;;7292790;32;20135;-61
2023/01/16 10:01:27;;;;;;;1.33;0.47;;;5.10;99.90;;;;;;7295934;32;20183;-61
2023/01/16 10:05:40;;;;;;;4.05;0.45;;;5.10;99.90;;;;;;7298761;32;20659;-61
2023/01/16 10:10:26;;;;;;;1.55;0.30;;;5.20;99.90;;;;;;7295069;32;20230;-61
2023/01/16 10:14:28;;;;;;;2.35;0.80;;;5.20;99.90;;;;;;7297362;32;20756;-61
2023/01/16 10:18:57;;;;;;;1.17;0.32;;;5.20;99.90;;;;;;7293133;32;20130;-60
2023/01/16 10:23:14;;;;;;;1.45;0.30;;;5.10;99.90;;;;;;7295894;32;20983;-60
2023/01/16 10:27:35;;;;;;;1.05;0.32;;;5.10;99.90;;;;;;7298138;32;20175;-61
2023/01/16 10:31:44;;;;;;;2.40;0.30;;;5.20;99.90;;;;;;7297044;32;20176;-62
2023/01/16 10:35:49;;;;;;;0.70;0.30;;;5.20;99.90;;;;;;7295609;32;20254;-60
2023/01/16 10:39:52;;;;;;;2.30;0.40;;;5.20;99.90;;;;;;7291881;32;20142;-61
2023/01/16 10:52:38;;;;;;;1.37;0.30;;;5.40;99.90;;;;;;7285660;32;20238;-60
2023/01/16 10:56:41;;;;;;;1.02;0.35;;;5.50;99.90;;;;;;7297492;32;20115;-61
2023/01/16 11:00:43;;;;;;;1.65;0.10;;;5.50;99.90;;;;;;7290356;32;20120;-60
2023/01/16 11:04:45;;;;;;;1.00;0.30;;;5.60;99.90;;;;;;7292801;32;20211;-62
2023/01/16 11:08:54;;;;;;;0.50;0.10;;;5.60;99.90;;;;;;7287354;32;20104;-61
2023/01/16 11:21:55;;;;;;;0.73;0.15;;;5.70;99.90;;;;;;7286959;32;20120;-62
2023/01/16 11:25:59;;;;;;;1.10;0.30;;;5.80;99.90;;;;;;7286824;32;20112;-62
2023/01/16 11:30:06;;;;;;;0.40;0.15;;;5.80;99.90;;;;;;7287405;32;20482;-62
2023/01/16 11:34:14;;;;;;;0.85;0.30;;;5.80;99.90;;;;;;7296560;32;20104;-61
2023/01/16 11:38:17;;;;;;;0.75;0.20;;;5.80;99.90;;;;;;7292674;32;20176;-62
2023/01/16 11:46:58;;;;;;;1.67;0.20;;;5.80;99.90;;;;;;7218712;32;20134;-59
2023/01/16 11:51:03;;;;;;;0.20;0.10;;;5.60;99.90;;;;;;7293686;32;20190;-60
2023/01/16 11:55:12;;;;;;;0.68;0.30;;;5.70;99.90;;;;;;7293271;32;20108;-60
2023/01/16 11:59:45;;;;;;;0.30;0.20;;;5.70;99.90;;;;;;7295746;32;20132;-60
2023/01/16 12:04:09;;;;;;;0.52;0.20;;;5.70;99.90;;;;;;7292633;32;20112;-60
2023/01/16 12:08:11;;;;;;;1.80;0.35;;;5.80;99.90;;;;;;7289523;32;20172;-59
2023/01/16 12:17:03;;;;;;;1.12;0.20;;;6.00;99.90;;;;;;7290307;32;20179;-59
2023/01/16 12:21:26;;;;;;;1.57;0.30;;;6.20;99.90;;;;;;7298835;32;20595;-59
2023/01/16 12:25:59;;;;;;;0.45;0.20;;;6.00;99.90;;;;;;7290170;32;20205;-59
2023/01/16 12:30:22;;;;;;;0.50;0.30;;;6.00;99.90;;;;;;7288501;32;20697;-60
2023/01/16 12:34:52;;;;;;;0.80;0.20;;;6.00;99.90;;;;;;7297339;32;20152;-59
2023/01/16 12:38:57;;;;;;;2.83;0.40;;;5.90;99.90;;;;;;7283568;32;20116;-59
2023/01/16 12:43:23;;;;;;;1.80;0.25;;;5.70;99.90;;;;;;7290966;32;20108;-59
2023/01/16 12:47:58;;;;;;;2.62;0.40;;;5.80;99.90;;;;;;7291469;32;20134;-60
2023/01/16 12:52:25;;;;;;;2.12;0.32;;;5.70;99.90;;;;;;7293468;32;20565;-60
2023/01/16 12:56:48;;;;;;;0.55;0.20;;;5.80;99.90;;;;;;7288316;32;20108;-60
2023/01/16 13:01:22;;;;;;;0.70;0.20;;;5.80;99.90;;;;;;7274576;32;20126;-60
2023/01/16 13:05:33;;;;;;;2.60;0.30;;;5.90;99.90;;;;;;7285687;32;20195;-60
2023/01/16 13:09:43;;;;;;;1.30;0.30;;;6.00;99.90;;;;;;7298771;32;20263;-60
2023/01/16 13:13:52;;;;;;;0.50;0.20;;;6.00;99.90;;;;;;7298173;32;20115;-61
2023/01/16 13:18:03;;;;;;;1.33;0.30;;;6.00;99.90;;;;;;7297826;32;20189;-62
2023/01/16 13:22:28;;;;;;;1.15;0.30;;;5.70;99.90;;;;;;7293951;32;20257;-62
2023/01/16 13:26:31;;;;;;;2.50;0.52;;;5.70;99.90;;;;;;7297347;32;20684;-62
2023/01/16 13:30:33;;;;;;;2.03;0.32;;;5.50;99.90;;;;;;7272581;32;20104;-62
2023/01/16 13:35:05;;;;;;;1.30;0.20;;;5.40;99.90;;;;;;7287699;32;20103;-62
2023/01/16 13:39:53;;;;;;;2.33;0.30;;;5.30;99.90;;;;;;7293443;32;20596;-63
2023/01/16 13:48:52;;;;;;;2.20;0.30;;;5.50;99.90;;;;;;7197885;32;20133;-61
2023/01/16 13:52:56;;;;;;;0.80;0.30;;;5.50;99.90;;;;;;7293754;32;20167;-62
2023/01/16 13:57:02;;;;;;;0.80;0.40;;;5.60;99.90;;;;;;7298326;32;20309;-62
2023/01/16 14:01:05;;;;;;;2.12;0.37;;;5.60;99.90;;;;;;7296116;32;20116;-62
2023/01/16 14:05:07;;;;;;;1.02;0.30;;;5.50;99.90;;;;;;7286869;32;20120;-61
2023/01/16 14:09:17;;;;;;;0.50;0.20;;;5.50;99.90;;;;;;7291116;32;20132;-61
2023/01/16 14:13:21;;;;;;;0.90;0.30;;;5.60;99.90;;;;;;7293761;32;20130;-60
2023/01/16 14:17:30;;;;;;;0.50;0.30;;;5.60;99.90;;;;;;7290425;32;20116;-60
2023/01/16 14:21:38;;;;;;;0.73;0.20;;;5.60;99.90;;;;;;7295883;32;20293;-61
2023/01/16 14:25:40;;;;;;;0.75;0.20;;;5.40;99.90;;;;;;7295988;32;20140;-60
2023/01/16 14:30:03;;;;;;;0.68;0.28;;;5.30;99.90;;;;;;7287322;32;20253;-62
2023/01/16 14:34:14;;;;;;;1.23;0.20;;;5.20;99.90;;;;;;7296707;32;20501;-61
2023/01/16 14:38:26;;;;;;;3.25;0.20;;;5.20;99.90;;;;;;7294117;32;20155;-61
2023/01/16 14:56:31;;;;;;;1.12;0.30;;;4.90;99.90;;;;;;7291069;32;20549;-61
2023/01/16 15:00:36;;;;;;;1.42;0.40;;;4.80;99.90;;;;;;7291244;32;20103;-61
2023/01/16 15:05:04;;;;;;;2.20;0.20;;;4.80;99.90;;;;;;7295704;32;20114;-61
2023/01/16 15:09:11;;;;;;;;;;;4.80;99.90;;;;;;7278224;32;20249;-61
2023/01/16 15:14:25;;;;;;;1.00;0.30;;;4.70;99.90;;;;;;7295004;32;20025;-61
2023/01/16 15:22:39;;;;;;;1.92;0.40;;;4.70;99.90;;;;;;7281257;32;20295;-61
2023/01/16 15:27:01;;;;;;;0.80;0.30;;;4.80;99.90;;;;;;7295920;32;20211;-60
2023/01/16 15:31:13;;;;;;;1.12;0.40;;;4.80;99.90;;;;;;7276668;32;20126;-60
2023/01/16 15:35:16;;;;;;;1.25;0.40;;;4.70;99.90;;;;;;7291288;32;20132;-60
2023/01/16 15:39:38;;;;;;;1.17;0.60;;;4.70;99.90;;;;;;7293006;32;20580;-60
2023/01/16 15:48:15;;;;;;;2.20;0.40;;;4.70;99.90;;;;;;7295974;32;20360;-61
2023/01/16 15:52:25;;;;;;;0.77;0.40;;;4.70;99.90;;;;;;7294205;32;20446;-60
2023/01/16 15:56:41;;;;;;;1.03;0.40;;;4.70;99.90;;;;;;7288312;32;20229;-61
2023/01/16 16:01:01;;;;;;;1.23;0.50;;;4.70;99.90;;;;;;7285780;32;20109;-61
2023/01/16 16:05:04;;;;;;;1.20;0.50;;;4.60;99.90;;;;;;7290534;32;20104;-61
2023/01/16 16:09:13;;;;;;;1.30;0.70;;;4.50;99.90;;;;;;7296025;32;20108;-61
2023/01/16 16:13:17;;;;;;;1.67;0.40;;;4.70;99.90;;;;;;7294228;32;20223;-60
2023/01/16 16:26:15;;;;;;;2.25;0.52;;;4.70;99.90;;;;;;7290440;32;20111;-60
2023/01/16 16:30:25;;;;;;;1.50;0.70;;;4.70;99.90;;;;;;7292517;32;20235;-59
2023/01/16 16:34:29;;;;;;;2.12;0.73;;;4.70;99.90;;;;;;7286727;32;20099;-59
2023/01/16 16:38:46;;;;;;;1.00;0.60;;;4.70;99.90;;;;;;7298146;32;20213;-60
2023/01/16 16:42:51;;;;;;;1.87;0.70;;;4.80;99.90;;;;;;7296059;32;20134;-60
2023/01/16 16:46:57;;;;;;;2.83;0.77;;;4.70;99.90;;;;;;7290905;32;20217;-61
2023/01/16 16:51:28;;;;;;;2.70;0.90;;;4.70;99.90;;;;;;7302533;32;20297;-60
2023/01/16 16:55:34;;;;;;;1.52;0.88;;;4.70;99.90;;;;;;7292388;32;20108;-60
2023/01/16 16:59:37;;;;;;;1.12;0.60;;;4.70;99.90;;;;;;7294482;32;20607;-60
2023/01/16 17:03:40;;;;;;;1.95;0.90;;;4.70;99.90;;;;;;7298116;32;20197;-61
2023/01/16 17:07:41;;;;;;;1.55;0.80;;;4.70;99.90;;;;;;7294829;32;20636;-61
2023/01/16 17:11:45;;;;;;;2.17;1.05;;;4.70;99.90;;;;;;7297570;32;20179;-60
2023/01/16 17:15:49;;;;;;;1.83;0.73;;;4.70;99.90;;;;;;7291791;32;20180;-60
2023/01/16 17:19:51;;;;;;;1.35;0.80;;;4.70;99.90;;;;;;7296854;32;20115;-60
2023/01/16 17:23:53;;;;;;;1.77;0.80;;;4.80;99.90;;;;;;7284208;32;20202;-63
2023/01/16 17:27:55;;;;;;;2.15;0.88;;;4.70;99.90;;;;;;7298193;32;20329;-60
2023/01/16 17:31:57;;;;;;;1.15;0.70;;;4.80;99.90;;;;;;7298436;32;20126;-60
2023/01/16 17:36:09;;;;;;;2.22;0.82;;;4.80;99.90;;;;;;7295408;32;20156;-60
2023/01/16 17:40:11;;;;;;;3.85;0.75;;;4.80;99.90;;;;;;7291066;32;20309;-61
2023/01/16 17:48:38;;;;;;;1.83;1.40;;;4.70;99.90;;;;;;7294770;32;20550;-60
2023/01/16 17:52:40;;;;;;;2.53;1.60;;;4.70;99.90;;;;;;7288537;32;20370;-60
2023/01/16 17:56:41;;;;;;;3.60;1.62;;;4.70;99.90;;;;;;7292796;32;20440;-60
2023/01/16 18:00:44;;;;;;;2.10;1.90;;;4.70;99.90;;;;;;7293367;32;20149;-60
2023/01/16 18:04:45;;;;;;;15.20;10.48;;;4.70;99.90;;;;;;7290178;32;20121;-60
2023/01/16 18:08:49;;;;;;;3.67;2.65;;;4.80;99.90;;;;;;7293725;32;20097;-61
2023/01/16 18:17:23;;;;;;;3.33;2.15;;;4.80;99.90;;;;;;7298883;32;20231;-61
2023/01/16 18:25:56;;;;;;;4.68;2.72;;;4.70;99.90;;;;;;7276163;32;20834;-60
2023/01/16 18:30:00;;;;;;;3.08;2.58;;;4.80;99.90;;;;;;7297337;32;20100;-60
2023/01/16 18:34:01;;;;;;;5.05;3.00;;;4.70;99.90;;;;;;7296786;32;20100;-60
2023/01/16 19:04:34;;;;;;;3.60;2.70;;;4.80;99.90;;;;;;7292924;32;20194;-60
2023/01/16 19:08:36;;;;;;;4.60;2.95;;;4.90;99.90;;;;;;7292827;32;20294;-60
2023/01/16 19:12:38;;;;;;;4.20;3.30;;;4.80;99.90;;;;;;7271999;32;20607;-60
2023/01/16 19:16:48;;;;;;;4.75;3.35;;;4.90;99.90;;;;;;7280362;32;20103;-59
2023/01/16 19:20:50;;;;;;;4.87;3.70;;;4.80;99.90;;;;;;7279059;32;20250;-59
2023/01/16 19:24:55;;;;;;;7.30;4.10;;;5.00;99.90;;;;;;7285213;32;20209;-59
2023/01/16 19:28:56;;;;;;;5.62;3.78;;;5.00;99.90;;;;;;7279594;32;20127;-61
2023/01/16 19:32:58;;;;;;;8.90;4.53;;;5.10;99.90;;;;;;7279441;32;20124;-63
2023/01/16 19:37:04;;;;;;;6.12;4.60;;;4.90;99.90;;;;;;7288653;32;20161;-61
2023/01/16 19:46:41;;;;;;;8.82;4.87;;;4.90;99.90;;;;;;7279491;32;20129;-58
2023/01/16 19:49:49;;;;;;;8.48;5.43;;;4.90;99.90;;;;;;7288082;32;20139;-59
2023/01/16 19:53:52;;;;;;;8.07;5.50;;;5.00;99.90;;;;;;7289452;32;20476;-61
2023/01/16 19:57:54;;;;;;;5.30;4.35;;;4.90;99.90;;;;;;7277469;32;20160;-61
2023/01/16 20:02:04;;;;;;;6.70;3.97;;;4.90;99.90;;;;;;7285681;32;20428;-61
2023/01/16 20:06:06;;;;;;;5.40;4.25;;;4.80;99.90;;;;;;7285613;32;20128;-62
2023/01/16 20:10:08;;;;;;;4.68;4.18;;;4.70;99.90;;;;;;7288798;32;20487;-62
2023/01/16 20:14:11;;;;;;;3.92;3.45;;;4.60;99.90;;;;;;7283344;32;20119;-61
2023/01/16 20:18:13;;;;;;;5.15;4.07;;;4.40;99.90;;;;;;7271868;32;20226;-62
2023/01/16 20:22:14;;;;;;;5.05;4.25;;;4.40;99.90;;;;;;7285921;32;20255;-62
2023/01/16 20:26:35;;;;;;;4.47;4.00;;;4.30;99.90;;;;;;7295537;32;20835;-62
2023/01/16 20:30:44;;;;;;;6.12;5.22;;;4.20;99.90;;;;;;7288671;32;20149;-62
2023/01/16 20:34:46;;;;;;;5.90;5.30;;;4.20;99.90;;;;;;7292013;32;20107;-61
2023/01/16 20:38:48;;;;;;;5.97;5.35;;;4.10;99.90;;;;;;7297501;32;20099;-62
2023/01/16 20:47:12;;;;;;;5.53;4.82;;;4.00;99.90;;;;;;7295535;32;20111;-61
2023/01/16 20:51:14;;;;;;;5.70;5.10;;;3.90;99.90;;;;;;7287825;32;20225;-62
2023/01/16 20:55:16;;;;;;;5.87;4.70;;;3.90;99.90;;;;;;7293762;32;20146;-62
2023/01/16 20:59:30;;;;;;;4.95;4.45;;;3.90;99.90;;;;;;7296316;32;20119;-61
2023/01/16 21:03:32;;;;;;;5.47;4.97;;;3.90;99.90;;;;;;7288562;32;20484;-62
2023/01/16 21:07:34;;;;;;;5.12;4.62;;;3.90;99.90;;;;;;7279951;32;20467;-59
2023/01/16 21:21:47;;;;;;;6.35;5.47;;;3.80;99.90;;;;;;7295381;32;20149;-60
2023/01/16 21:24:39;;;;;;;7.00;4.00;;;3.90;99.90;;;;;;7288576;32;20134;-65
2023/01/16 21:28:41;;;;;;;3.47;2.83;;;3.90;99.90;;;;;;7278919;32;20602;-61
2023/01/16 21:32:43;;;;;;;3.42;2.60;;;3.90;99.90;;;;;;7295227;32;20201;-62
2023/01/16 21:36:49;;;;;;;2.87;2.05;;;4.00;99.90;;;;;;7294797;32;20365;-62
2023/01/16 21:40:50;;;;;;;3.17;2.58;;;4.00;99.90;;;;;;7294790;32;20095;-60
2023/01/16 21:49:19;;;;;;;4.35;3.30;;;4.00;99.90;;;;;;7273429;32;20162;-61
2023/01/16 21:53:24;;;;;;;4.80;4.05;;;4.00;99.90;;;;;;7297751;32;20204;-60
2023/01/16 21:57:25;;;;;;;5.47;4.18;;;3.90;99.90;;;;;;7292761;32;20096;-60
2023/01/16 22:01:27;;;;;;;4.78;4.25;;;4.00;99.90;;;;;;7294968;32;20126;-60
2023/01/16 22:05:29;;;;;;;5.03;3.72;;;4.00;99.90;;;;;;7291370;32;20156;-60
2023/01/16 22:09:31;;;;;;;3.92;3.50;;;4.00;99.90;;;;;;7283853;32;20205;-60
2023/01/16 22:17:58;;;;;;;3.35;3.05;;;4.00;99.90;;;;;;7289457;32;20104;-60
2023/01/16 22:22:00;;;;;;;3.85;3.45;;;4.00;99.90;;;;;;7292850;32;20122;-61
2023/01/16 22:26:02;;;;;;;4.32;2.90;;;4.00;99.90;;;;;;7296240;32;20099;-60
2023/01/16 22:30:04;;;;;;;4.25;3.05;;;4.00;99.90;;;;;;7290502;32;20564;-61
2023/01/16 22:34:06;;;;;;;4.82;2.65;;;4.00;99.90;;;;;;7288319;32;20237;-61
2023/01/16 22:38:08;;;;;;;3.67;2.78;;;4.00;99.90;;;;;;7280375;32;20226;-60
2023/01/16 22:42:15;;;;;;;3.40;3.05;;;4.00;99.90;;;;;;7284511;32;20250;-60
2023/01/16 22:46:23;;;;;;;3.22;2.83;;;4.00;99.90;;;;;;7285879;32;20214;-60
2023/01/16 22:50:25;;;;;;;3.78;3.03;;;4.00;99.90;;;;;;7285645;32;20277;-60
2023/01/16 22:54:27;;;;;;;3.28;2.12;;;4.00;99.90;;;;;;7282346;32;22577;-60
2023/01/16 22:58:29;;;;;;;4.50;2.35;;;4.00;99.90;;;;;;7283293;32;20108;-60
2023/01/16 23:02:31;;;;;;;4.32;2.85;;;4.00;99.90;;;;;;7285113;32;20518;-58
2023/01/16 23:06:32;;;;;;;3.42;2.80;;;4.00;99.90;;;;;;7285817;32;20189;-58
2023/01/16 23:10:34;;;;;;;5.15;3.10;;;3.90;99.90;;;;;;7277828;32;20124;-58
2023/01/16 23:14:36;;;;;;;4.82;2.75;;;3.90;99.90;;;;;;7287281;32;20132;-59
2023/01/16 23:18:37;;;;;;;5.12;3.35;;;3.80;99.90;;;;;;7281760;32;20515;-58
2023/01/16 23:22:39;;;;;;;3.28;2.75;;;3.90;99.90;;;;;;7286263;32;20505;-59
2023/01/16 23:26:41;;;;;;;3.97;2.92;;;3.90;99.90;;;;;;7286104;32;20445;-59
2023/01/16 23:30:43;;;;;;;4.82;2.85;;;3.80;99.90;;;;;;7286197;32;20137;-59
2023/01/16 23:34:45;;;;;;;3.75;2.85;;;3.90;99.90;;;;;;7286146;32;20175;-59
2023/01/16 23:38:47;;;;;;;5.30;2.78;;;3.90;99.90;;;;;;7282340;32;20126;-58
2023/01/16 23:47:23;;;;;;;3.55;2.47;;;3.90;99.90;;;;;;7288387;32;20103;-59
2023/01/16 23:51:25;;;;;;;3.05;2.40;;;3.80;99.90;;;;;;7284597;32;20124;-59
2023/01/16 23:55:26;;;;;;;4.60;2.37;;;3.80;99.90;;;;;;7284367;32;20408;-59
2023/01/16 23:59:28;;;;;;;3.65;2.40;;;3.70;99.90;;;;;;7281118;32;20348;-59
